Time;durP1;ratioP1;P1;durP2;ratioP2;P2;SDS_P1;SDS_P2;PMS_P1;PMS_P2;Temp;Humidity;BMP_temperature;BMP_pressure;BME280_temperature;BME280_humidity;BME280_pressure;Samples;Min_cycle;Max_cycle;Signal;HPM_P1;HPM_P2
2022/02/07 00:02:09;;;;;;;41.90;10.52;;;9.10;99.90;;;;;;5033780;28;20429;-67
2022/02/07 00:05:13;;;;;;;33.85;11.82;;;9.20;99.90;;;;;;5033730;28;20045;-69
2022/02/07 00:08:17;;;;;;;19.10;6.85;;;9.20;99.90;;;;;;5033728;28;20048;-69
2022/02/07 00:11:21;;;;;;;32.97;8.98;;;9.20;99.90;;;;;;5033509;28;20460;-67
2022/02/07 00:14:25;;;;;;;17.10;5.80;;;9.20;99.90;;;;;;5034303;28;20044;-68
2022/02/07 00:17:30;;;;;;;23.85;6.80;;;9.20;99.90;;;;;;5033621;28;20061;-67
2022/02/07 00:20:35;;;;;;;30.70;8.02;;;9.20;99.90;;;;;;5034251;28;20048;-67
2022/02/07 00:23:39;;;;;;;28.35;9.48;;;9.20;99.90;;;;;;5033390;28;20043;-67
2022/02/07 00:26:43;;;;;;;25.63;6.65;;;9.30;99.90;;;;;;5032781;28;20045;-69
2022/02/07 00:29:47;;;;;;;20.33;7.30;;;9.30;99.90;;;;;;5033178;28;20040;-67
2022/02/07 00:32:51;;;;;;;16.33;5.68;;;9.20;99.90;;;;;;5034095;28;20507;-67
2022/02/07 00:35:55;;;;;;;21.92;6.10;;;9.20;99.90;;;;;;5032222;28;20486;-69
2022/02/07 00:39:07;;;;;;;17.98;6.35;;;9.20;99.90;;;;;;5032431;28;20392;-69
2022/02/07 00:42:21;;;;;;;23.40;6.90;;;9.20;99.90;;;;;;5032371;28;20041;-68
2022/02/07 00:48:39;;;;;;;24.33;5.90;;;9.20;99.90;;;;;;5032264;28;20376;-68
2022/02/07 00:51:44;;;;;;;21.55;6.28;;;9.20;99.90;;;;;;5031584;28;20049;-68
2022/02/07 00:54:48;;;;;;;19.45;5.60;;;9.20;99.90;;;;;;5031928;28;20515;-68
2022/02/07 00:57:53;;;;;;;16.90;5.32;;;9.20;99.90;;;;;;5032414;28;20053;-69
2022/02/07 01:00:57;;;;;;;20.58;7.45;;;9.10;99.90;;;;;;5032071;28;20037;-68
2022/02/07 01:04:06;;;;;;;20.20;5.25;;;9.20;99.90;;;;;;5031381;28;20048;-69
2022/02/07 01:07:19;;;;;;;25.45;5.90;;;9.10;99.90;;;;;;5031212;28;20314;-68
2022/02/07 01:10:37;;;;;;;20.83;5.45;;;9.00;99.90;;;;;;5030442;28;20040;-69
2022/02/07 01:54:10;;;;;;;;;;;8.80;99.90;;;;;;5030840;28;20045;-68
2022/02/07 01:57:19;;;;;;;16.63;4.97;;;8.70;99.90;;;;;;5031027;28;20435;-68
2022/02/07 02:00:26;;;;;;;22.75;4.15;;;8.70;99.90;;;;;;5031791;28;20048;-68
2022/02/07 02:03:35;;;;;;;22.48;4.10;;;8.70;99.90;;;;;;5030668;28;20045;-69
2022/02/07 02:06:40;;;;;;;16.20;4.05;;;8.70;99.90;;;;;;5031895;28;20155;-69
2022/02/07 02:09:52;;;;;;;21.67;4.50;;;8.70;99.90;;;;;;5030031;28;20056;-67
2022/02/07 02:13:05;;;;;;;18.83;4.35;;;8.70;99.90;;;;;;5030087;28;20057;-67
2022/02/07 02:16:21;;;;;;;25.88;4.60;;;8.60;99.90;;;;;;5031927;28;20045;-67
2022/02/07 02:45:28;;;;;;;17.88;4.70;;;8.30;99.90;;;;;;5029922;28;20499;-68
2022/02/07 02:46:29;;;;;;;23.90;5.43;;;8.30;99.90;;;;;;5032515;28;20040;-67
2022/02/07 02:49:45;;;;;;;22.30;3.85;;;8.40;99.90;;;;;;5030052;28;20495;-68
2022/02/07 02:52:49;;;;;;;19.67;4.32;;;8.40;99.90;;;;;;5030122;28;20052;-68
2022/02/07 02:55:53;;;;;;;21.10;3.78;;;8.40;99.90;;;;;;5030401;28;20048;-68
2022/02/07 02:59:05;;;;;;;17.10;4.13;;;8.40;99.90;;;;;;5029550;28;20044;-68
2022/02/07 03:02:13;;;;;;;20.02;3.92;;;8.50;99.90;;;;;;5033418;28;20060;-68
2022/02/07 03:05:17;;;;;;;27.58;4.30;;;8.50;99.90;;;;;;5031514;28;20050;-68
2022/02/07 03:08:22;;;;;;;15.45;3.05;;;8.60;99.90;;;;;;5029808;28;20048;-67
2022/02/07 03:11:28;;;;;;;27.27;6.68;;;8.50;99.90;;;;;;5032151;28;20495;-67
2022/02/07 03:14:42;;;;;;;22.52;4.50;;;8.50;99.90;;;;;;5020949;28;20044;-68
2022/02/07 03:17:50;;;;;;;19.98;4.57;;;8.60;99.90;;;;;;5032034;28;20472;-68
2022/02/07 03:20:56;;;;;;;14.77;3.67;;;8.60;99.90;;;;;;5029791;28;20040;-68
2022/02/07 03:24:00;;;;;;;20.15;4.30;;;8.60;99.90;;;;;;5030384;28;20039;-68
2022/02/07 03:27:05;;;;;;;23.05;3.80;;;8.60;99.90;;;;;;5030347;28;20044;-67
2022/02/07 03:30:13;;;;;;;14.50;3.40;;;8.60;99.90;;;;;;5032651;28;20052;-68
2022/02/07 03:33:25;;;;;;;21.25;4.38;;;8.60;99.90;;;;;;5033079;28;20040;-68
2022/02/07 03:36:34;;;;;;;18.60;3.85;;;8.60;99.90;;;;;;5033574;28;20052;-68
2022/02/07 03:39:42;;;;;;;20.45;4.22;;;8.60;99.90;;;;;;5032393;28;20599;-67
2022/02/07 03:42:49;;;;;;;20.40;3.20;;;8.60;99.90;;;;;;5033245;28;20041;-68
2022/02/07 03:45:53;;;;;;;14.30;3.88;;;8.70;99.90;;;;;;5033323;28;20503;-67
2022/02/07 03:48:57;;;;;;;28.02;4.25;;;8.60;99.90;;;;;;5032913;28;20063;-68
2022/02/07 03:52:03;;;;;;;17.50;4.15;;;8.60;99.90;;;;;;5033439;28;20499;-68
2022/02/07 03:55:09;;;;;;;23.60;3.47;;;8.60;99.90;;;;;;5032404;28;20052;-68
2022/02/07 03:58:20;;;;;;;18.52;6.45;;;8.60;99.90;;;;;;5034103;28;20041;-68
2022/02/07 04:01:26;;;;;;;27.92;4.78;;;8.60;99.90;;;;;;5032796;28;20041;-68
2022/02/07 04:04:32;;;;;;;22.02;4.75;;;8.60;99.90;;;;;;5033273;28;20052;-68
2022/02/07 04:07:36;;;;;;;22.00;3.45;;;8.50;99.90;;;;;;5033120;28;20416;-69
2022/02/07 04:11:05;;;;;;;16.73;3.67;;;8.60;99.90;;;;;;5033062;28;20056;-68
2022/02/07 04:14:20;;;;;;;17.00;3.22;;;8.60;99.90;;;;;;5033100;28;20048;-68
2022/02/07 04:17:28;;;;;;;20.10;4.00;;;8.70;99.90;;;;;;5033093;28;20380;-68
2022/02/07 04:20:38;;;;;;;20.00;3.47;;;8.80;99.90;;;;;;5020619;28;20048;-69
2022/02/07 04:23:43;;;;;;;18.00;3.60;;;8.80;99.90;;;;;;5033035;28;20389;-68
2022/02/07 04:27:00;;;;;;;17.52;3.95;;;8.80;99.90;;;;;;5033769;28;20045;-68
2022/02/07 04:30:07;;;;;;;23.33;4.03;;;8.70;99.90;;;;;;5033334;28;20044;-68
2022/02/07 04:33:15;;;;;;;20.00;3.97;;;8.70;99.90;;;;;;5034386;28;20056;-68
2022/02/07 04:36:19;;;;;;;13.40;3.70;;;8.70;99.90;;;;;;5032223;28;20515;-68
2022/02/07 04:39:25;;;;;;;25.02;4.60;;;8.80;99.90;;;;;;5032214;28;20049;-67
2022/02/07 04:42:33;;;;;;;23.33;3.90;;;8.70;99.90;;;;;;5033140;28;20037;-68
2022/02/07 04:52:07;;;;;;;16.38;4.28;;;8.40;99.90;;;;;;5031879;28;20044;-68
2022/02/07 05:01:54;;;;;;;22.52;3.65;;;8.60;99.90;;;;;;5031802;28;20044;-68
2022/02/07 05:05:16;;;;;;;22.20;4.63;;;8.60;99.90;;;;;;5031612;28;20045;-68
2022/02/07 05:15:13;;;;;;;14.18;3.28;;;8.80;99.90;;;;;;5031394;28;20049;-68
2022/02/07 05:18:20;;;;;;;15.60;3.22;;;8.70;99.90;;;;;;5031009;28;20044;-68
2022/02/07 05:21:43;;;;;;;20.85;3.13;;;8.80;99.90;;;;;;5031768;28;20053;-68
2022/02/07 05:25:03;;;;;;;30.85;3.97;;;8.90;99.90;;;;;;5031125;28;20052;-67
2022/02/07 05:28:30;;;;;;;21.63;3.53;;;9.10;99.90;;;;;;5031886;28;20400;-68
2022/02/07 05:31:52;;;;;;;23.23;3.78;;;9.20;99.90;;;;;;5031551;28;20084;-68
2022/02/07 05:35:16;;;;;;;16.38;3.30;;;9.20;99.90;;;;;;5030463;28;20503;-67
2022/02/07 05:38:39;;;;;;;28.35;3.75;;;9.20;99.90;;;;;;5031600;28;20400;-67
2022/02/07 05:42:03;;;;;;;25.85;4.70;;;9.20;99.90;;;;;;5030448;28;20048;-68
2022/02/07 05:45:21;;;;;;;19.35;3.50;;;9.20;99.90;;;;;;5031041;28;20056;-68
2022/02/07 05:48:51;;;;;;;20.23;3.10;;;9.20;99.90;;;;;;5031200;28;20052;-67
2022/02/07 05:52:13;;;;;;;23.17;3.58;;;9.20;99.90;;;;;;5030342;28;20040;-68
2022/02/07 05:55:36;;;;;;;18.13;3.42;;;9.20;99.90;;;;;;5033062;28;20048;-67
2022/02/07 05:58:55;;;;;;;19.42;4.43;;;9.20;99.90;;;;;;5029815;28;20044;-67
2022/02/07 06:02:05;;;;;;;22.17;3.72;;;9.10;99.90;;;;;;5031720;28;20091;-64
2022/02/07 06:05:09;;;;;;;27.23;3.78;;;9.10;99.90;;;;;;5030234;28;20448;-65
2022/02/07 06:08:13;;;;;;;24.50;3.20;;;9.00;99.90;;;;;;5030215;28;20052;-65
2022/02/07 06:11:18;;;;;;;34.55;3.90;;;8.80;99.90;;;;;;5029764;28;20045;-65
2022/02/07 06:14:23;;;;;;;20.92;3.85;;;8.70;99.90;;;;;;5031901;28;20048;-65
2022/02/07 06:17:28;;;;;;;25.88;5.05;;;8.70;99.90;;;;;;5031147;28;20056;-65
2022/02/07 06:20:32;;;;;;;23.98;3.33;;;8.70;99.90;;;;;;5034146;28;20068;-65
2022/02/07 06:23:37;;;;;;;24.42;4.93;;;8.70;99.90;;;;;;5032343;28;20049;-65
2022/02/07 06:26:48;;;;;;;30.02;3.63;;;8.70;99.90;;;;;;5019539;28;20037;-65
2022/02/07 06:29:57;;;;;;;22.98;3.92;;;8.70;99.90;;;;;;5031088;28;20048;-65
2022/02/07 06:33:05;;;;;;;22.05;3.47;;;8.70;99.90;;;;;;5018337;28;20041;-65
2022/02/07 06:36:10;;;;;;;22.83;4.05;;;8.70;99.90;;;;;;5032350;28;20048;-65
2022/02/07 06:39:14;;;;;;;21.48;3.40;;;8.70;99.90;;;;;;5031218;28;20072;-65
2022/02/07 06:42:21;;;;;;;18.67;3.10;;;8.80;99.90;;;;;;5033835;28;20048;-65
2022/02/07 06:45:29;;;;;;;27.75;4.13;;;8.80;99.90;;;;;;5031826;28;20044;-65
2022/02/07 06:48:35;;;;;;;24.92;4.63;;;8.80;99.90;;;;;;5031605;28;20388;-66
2022/02/07 06:51:42;;;;;;;17.08;3.47;;;8.80;99.90;;;;;;5024707;28;20052;-65
2022/02/07 06:54:47;;;;;;;29.88;4.53;;;8.70;99.90;;;;;;5031100;28;20052;-66
2022/02/07 06:57:51;;;;;;;28.60;5.40;;;8.60;99.90;;;;;;5009431;28;20570;-66
2022/02/07 07:01:01;;;;;;;26.02;3.60;;;8.60;99.90;;;;;;5028005;28;20041;-66
2022/02/07 07:04:08;;;;;;;17.20;4.85;;;8.70;99.90;;;;;;5023186;28;20045;-65
2022/02/07 07:07:12;;;;;;;31.17;4.75;;;8.80;99.90;;;;;;5031649;28;20053;-65
2022/02/07 07:10:18;;;;;;;21.23;5.07;;;8.80;99.90;;;;;;5036280;28;20056;-65
2022/02/07 07:13:30;;;;;;;26.92;5.90;;;8.80;99.90;;;;;;5029657;28;20080;-65
2022/02/07 07:19:43;;;;;;;28.40;4.40;;;8.90;99.90;;;;;;5032155;28;20056;-65
2022/02/07 07:22:48;;;;;;;19.92;4.25;;;9.00;99.90;;;;;;5034506;28;20032;-66
2022/02/07 07:25:54;;;;;;;29.63;4.30;;;9.20;99.90;;;;;;5028774;28;20048;-66
2022/02/07 07:29:08;;;;;;;29.67;6.72;;;9.20;99.90;;;;;;5032494;28;20075;-66
2022/02/07 07:32:12;;;;;;;20.30;4.68;;;9.20;99.90;;;;;;5033089;28;20056;-66
2022/02/07 07:35:20;;;;;;;33.63;4.68;;;9.20;99.90;;;;;;5032941;28;20035;-66
2022/02/07 07:38:26;;;;;;;24.00;4.05;;;9.20;99.90;;;;;;5032841;28;20060;-66
2022/02/07 07:41:30;;;;;;;18.15;4.20;;;9.30;99.90;;;;;;5033684;28;20487;-66
2022/02/07 07:44:41;;;;;;;27.45;4.68;;;9.20;99.90;;;;;;5031301;28;20032;-66
2022/02/07 07:47:56;;;;;;;28.50;4.60;;;9.30;99.90;;;;;;5030849;28;20044;-66
2022/02/07 07:51:33;;;;;;;33.58;5.53;;;9.30;99.90;;;;;;5031515;28;20060;-66
2022/02/07 07:55:12;;;;;;;36.05;5.65;;;9.30;99.90;;;;;;5032786;28;20029;-66
2022/02/07 08:04:49;;;;;;;40.72;6.47;;;9.40;99.90;;;;;;5033208;28;20040;-66
2022/02/07 08:08:06;;;;;;;29.38;5.38;;;9.40;99.90;;;;;;5033209;28;20045;-66
2022/02/07 08:11:13;;;;;;;37.05;8.55;;;9.40;99.90;;;;;;5031886;28;20044;-66
2022/02/07 08:14:22;;;;;;;26.60;6.05;;;9.40;99.90;;;;;;5036014;28;20041;-66
2022/02/07 08:17:27;;;;;;;26.48;5.18;;;9.40;99.90;;;;;;5031545;28;20392;-66
2022/02/07 08:20:32;;;;;;;25.65;6.32;;;9.50;99.90;;;;;;5021521;28;20400;-67
2022/02/07 08:23:39;;;;;;;33.75;5.25;;;9.60;99.90;;;;;;5025540;28;20053;-67
2022/02/07 08:26:47;;;;;;;26.40;4.47;;;9.70;99.90;;;;;;5030551;28;20048;-67
2022/02/07 08:29:52;;;;;;;32.75;6.22;;;9.70;99.90;;;;;;5027575;28;20048;-67
2022/02/07 08:32:58;;;;;;;37.50;4.72;;;9.80;99.90;;;;;;5030421;28;20063;-67
2022/02/07 08:36:05;;;;;;;34.45;4.60;;;9.90;99.90;;;;;;5033982;28;20045;-67
2022/02/07 08:39:09;;;;;;;31.23;5.90;;;10.00;99.90;;;;;;5026999;28;20049;-67
2022/02/07 08:42:13;;;;;;;23.08;4.43;;;10.20;99.90;;;;;;5021134;28;20577;-67
2022/02/07 08:45:19;;;;;;;35.63;5.75;;;10.30;99.90;;;;;;5030198;28;20041;-67
2022/02/07 08:48:24;;;;;;;36.60;7.20;;;10.30;99.90;;;;;;5034239;28;20527;-66
2022/02/07 08:51:31;;;;;;;23.65;6.32;;;10.40;99.90;;;;;;5031037;28;20052;-66
2022/02/07 08:54:35;;;;;;;41.88;6.30;;;10.60;99.90;;;;;;5027308;28;20037;-66
2022/02/07 08:57:45;;;;;;;30.08;5.63;;;10.70;99.90;;;;;;5025957;28;20056;-66
2022/02/07 09:00:54;;;;;;;31.65;5.47;;;10.80;99.90;;;;;;5028154;28;20400;-67
2022/02/07 09:07:17;;;;;;;35.15;6.75;;;10.90;99.90;;;;;;5025041;28;20524;-67
2022/02/07 09:10:21;;;;;;;26.50;6.40;;;11.10;99.90;;;;;;5028450;28;20045;-68
2022/02/07 09:13:30;;;;;;;44.13;12.82;;;11.20;99.90;;;;;;5028635;28;20049;-67
2022/02/07 09:16:35;;;;;;;39.67;9.65;;;11.20;99.90;;;;;;5032393;28;20424;-67
2022/02/07 09:19:40;;;;;;;34.05;7.00;;;11.20;99.90;;;;;;5023867;28;20048;-67
2022/02/07 09:22:47;;;;;;;36.60;6.05;;;11.10;99.90;;;;;;5029824;28;20044;-67
2022/02/07 09:25:51;;;;;;;32.38;6.15;;;11.10;99.90;;;;;;5030437;28;20037;-67
2022/02/07 09:28:56;;;;;;;37.10;8.68;;;11.10;99.90;;;;;;5026003;28;20503;-67
2022/02/07 09:32:02;;;;;;;46.10;13.27;;;11.30;99.90;;;;;;5023283;28;20109;-67
2022/02/07 09:35:06;;;;;;;41.97;9.88;;;11.50;99.90;;;;;;5026637;28;20032;-67
2022/02/07 09:38:11;;;;;;;42.88;11.35;;;11.70;99.90;;;;;;5025676;28;20048;-67
2022/02/07 09:41:20;;;;;;;38.30;10.32;;;12.00;99.90;;;;;;5029069;28;20048;-67
2022/02/07 09:44:29;;;;;;;31.70;5.13;;;12.50;99.90;;;;;;5025857;28;20036;-67
2022/02/07 09:47:33;;;;;;;52.03;21.52;;;12.80;99.90;;;;;;5026664;28;20504;-67
2022/02/07 09:50:38;;;;;;;54.88;20.65;;;13.00;99.90;;;;;;5030836;28;20064;-67
2022/02/07 09:53:42;;;;;;;37.10;11.48;;;13.30;99.90;;;;;;5029519;28;20048;-67
2022/02/07 09:56:49;;;;;;;36.47;7.07;;;13.50;99.90;;;;;;5028144;28;20055;-67
2022/02/07 09:59:54;;;;;;;24.42;4.97;;;13.60;99.90;;;;;;5025778;28;20084;-67
2022/02/07 10:03:24;;;;;;;32.25;5.95;;;13.50;99.90;;;;;;5027722;28;20044;-67
2022/02/07 10:07:24;;;;;;;31.92;5.65;;;13.40;99.90;;;;;;5025288;28;20040;-67
2022/02/07 10:13:46;;;;;;;26.58;7.28;;;13.20;99.90;;;;;;5027248;28;20080;-67
2022/02/07 10:17:08;;;;;;;31.92;6.45;;;13.10;99.90;;;;;;5026113;28;20045;-66
2022/02/07 10:35:13;;;;;;;43.75;12.50;;;15.60;99.90;;;;;;5029520;28;20056;-67
2022/02/07 10:38:09;;;;;;;21.15;8.02;;;17.80;99.90;;;;;;5025408;28;20041;-67
2022/02/07 10:41:38;;;;;;;23.98;5.78;;;18.30;99.90;;;;;;5026707;28;20056;-67
2022/02/07 10:44:45;;;;;;;18.55;5.00;;;17.90;99.90;;;;;;5027731;28;20538;-66
2022/02/07 10:47:52;;;;;;;16.58;3.60;;;17.60;99.90;;;;;;5026713;28;20479;-67
2022/02/07 10:51:18;;;;;;;13.85;4.15;;;20.80;99.90;;;;;;5023105;28;20318;-67
2022/02/07 10:54:22;;;;;;;20.50;4.95;;;22.00;99.90;;;;;;5022099;28;20048;-67
2022/02/07 10:57:26;;;;;;;17.17;4.22;;;21.60;99.90;;;;;;5025101;28;20519;-67
2022/02/07 11:00:37;;;;;;;13.02;3.58;;;21.00;99.90;;;;;;5027634;28;20048;-67
2022/02/07 11:03:46;;;;;;;16.03;3.30;;;20.30;99.90;;;;;;5022546;28;20048;-68
2022/02/07 11:06:56;;;;;;;16.13;3.50;;;22.50;99.90;;;;;;5025432;28;20367;-68
2022/02/07 11:11:04;;;;;;;12.95;3.95;;;25.60;98.00;;;;;;5027078;28;20160;-68
2022/02/07 11:17:09;;;;;;;17.05;6.10;;;31.10;90.70;;;;;;5025337;28;20404;-68
2022/02/07 11:20:27;;;;;;;15.48;4.20;;;32.10;85.20;;;;;;5020539;28;21089;-68
2022/02/07 11:23:55;;;;;;;18.35;5.28;;;32.10;79.90;;;;;;5024493;28;20455;-68
2022/02/07 11:27:30;;;;;;;18.77;5.15;;;29.60;78.90;;;;;;5027689;28;20396;-67
2022/02/07 11:30:35;;;;;;;15.43;4.65;;;27.00;81.10;;;;;;5023733;28;20048;-68
2022/02/07 11:33:50;;;;;;;16.25;5.30;;;28.10;81.00;;;;;;5027409;28;20604;-67
2022/02/07 11:37:18;;;;;;;10.52;4.68;;;28.50;77.80;;;;;;5030534;28;20048;-68
2022/02/07 11:40:31;;;;;;;13.85;4.95;;;25.90;78.70;;;;;;5026720;28;20734;-68
2022/02/07 11:43:38;;;;;;;15.93;7.00;;;23.30;81.80;;;;;;5023442;28;20392;-66
2022/02/07 11:46:44;;;;;;;17.27;7.05;;;20.70;82.80;;;;;;5028248;28;20428;-67
2022/02/07 11:49:50;;;;;;;15.38;5.97;;;19.10;86.80;;;;;;5029398;28;20048;-67
2022/02/07 11:53:00;;;;;;;10.98;5.60;;;18.80;88.60;;;;;;5032825;28;20044;-67
2022/02/07 11:56:24;;;;;;;10.77;4.55;;;20.10;88.50;;;;;;5032037;28;20040;-67
2022/02/07 11:59:43;;;;;;;13.50;4.72;;;21.40;83.40;;;;;;5026916;28;20491;-67
2022/02/07 12:02:50;;;;;;;7.75;3.90;;;23.80;79.50;;;;;;5031768;28;20032;-70
2022/02/07 12:05:57;;;;;;;8.98;3.50;;;26.60;73.90;;;;;;5031403;28;20040;-70
2022/02/07 12:09:03;;;;;;;8.40;4.07;;;28.90;71.30;;;;;;5033254;28;20053;-71
2022/02/07 12:12:44;;;;;;;6.85;3.38;;;29.90;66.90;;;;;;5030017;28;20109;-71
2022/02/07 12:15:51;;;;;;;5.35;3.28;;;31.70;65.00;;;;;;5029106;28;20052;-71
2022/02/07 12:18:58;;;;;;;7.45;3.15;;;32.30;60.20;;;;;;5031872;28;20491;-69
2022/02/07 12:22:16;;;;;;;4.82;3.15;;;31.50;58.60;;;;;;5029131;28;20546;-68
2022/02/07 12:25:38;;;;;;;5.25;3.97;;;31.40;56.90;;;;;;5025336;28;20052;-67
2022/02/07 12:28:49;;;;;;;4.60;3.05;;;30.20;55.70;;;;;;5028617;28;20045;-67
2022/02/07 12:31:54;;;;;;;7.72;4.70;;;30.10;56.70;;;;;;5031045;28;20047;-67
2022/02/07 12:34:58;;;;;;;5.60;3.92;;;30.40;56.40;;;;;;5031281;28;20507;-66
2022/02/07 12:38:04;;;;;;;4.43;3.25;;;29.80;55.30;;;;;;5031752;28;20044;-67
2022/02/07 12:41:11;;;;;;;4.57;2.97;;;28.20;53.70;;;;;;5030873;28;20045;-68
2022/02/07 12:44:22;;;;;;;4.85;2.70;;;28.60;55.20;;;;;;5031876;28;20032;-68
2022/02/07 12:47:27;;;;;;;7.13;2.83;;;29.80;54.40;;;;;;5026936;28;20384;-67
2022/02/07 12:50:31;;;;;;;5.00;3.53;;;29.00;51.80;;;;;;5025562;28;20060;-67
2022/02/07 12:53:36;;;;;;;5.05;3.55;;;28.50;52.90;;;;;;5025472;28;20048;-67
2022/02/07 12:56:41;;;;;;;5.40;3.10;;;27.40;51.70;;;;;;5026581;28;20499;-67
2022/02/07 12:59:53;;;;;;;5.05;3.20;;;27.10;54.20;;;;;;5022246;28;20335;-67
2022/02/07 13:02:56;;;;;;;5.55;3.40;;;27.20;52.50;;;;;;5024811;28;20035;-67
2022/02/07 13:06:04;;;;;;;4.00;2.78;;;27.10;51.90;;;;;;5032153;28;20036;-65
2022/02/07 13:09:18;;;;;;;4.63;3.28;;;28.50;52.20;;;;;;5025018;28;20496;-66
2022/02/07 13:12:49;;;;;;;4.50;3.38;;;26.10;49.30;;;;;;5031170;28;20531;-67
2022/02/07 13:15:56;;;;;;;4.30;2.95;;;24.90;50.20;;;;;;5021760;28;20044;-67
2022/02/07 13:19:15;;;;;;;4.25;3.20;;;25.00;50.90;;;;;;5031366;28;20056;-67
2022/02/07 13:22:21;;;;;;;5.90;3.33;;;25.50;50.70;;;;;;5030451;28;20389;-66
2022/02/07 13:25:51;;;;;;;5.00;3.00;;;23.60;51.40;;;;;;5022030;28;20044;-66
2022/02/07 13:28:57;;;;;;;6.60;3.00;;;23.40;52.00;;;;;;5032281;28;20049;-66
2022/02/07 13:32:05;;;;;;;8.77;3.83;;;21.80;52.30;;;;;;5030989;28;20032;-66
2022/02/07 13:35:11;;;;;;;4.90;3.13;;;20.50;53.70;;;;;;5032075;28;20057;-67
2022/02/07 13:38:18;;;;;;;8.50;3.67;;;20.90;52.20;;;;;;5031181;28;20061;-66
2022/02/07 13:41:23;;;;;;;6.70;4.43;;;21.10;52.60;;;;;;5011909;28;20049;-67
2022/02/07 13:44:27;;;;;;;6.55;3.33;;;22.00;53.20;;;;;;5027391;28;20048;-67
2022/02/07 13:47:34;;;;;;;5.28;3.28;;;21.10;52.40;;;;;;5027831;28;20308;-65
2022/02/07 13:50:41;;;;;;;11.25;4.22;;;19.10;54.00;;;;;;5023662;28;20036;-66
2022/02/07 13:53:46;;;;;;;9.50;4.80;;;17.90;55.70;;;;;;5021120;28;20040;-66
2022/02/07 13:56:58;;;;;;;6.43;4.43;;;16.60;56.00;;;;;;5031032;28;20045;-66
2022/02/07 14:00:13;;;;;;;10.32;4.57;;;16.50;57.00;;;;;;5029532;28;20044;-67
2022/02/07 14:03:19;;;;;;;12.52;5.50;;;16.50;56.20;;;;;;5027621;28;20045;-65
2022/02/07 14:06:27;;;;;;;11.10;4.68;;;15.70;57.30;;;;;;5030625;28;20400;-65
2022/02/07 14:09:30;;;;;;;6.88;4.70;;;15.60;57.60;;;;;;5029812;28;20044;-66
2022/02/07 14:12:34;;;;;;;9.85;5.15;;;15.10;57.80;;;;;;5029142;28;20064;-66
2022/02/07 14:15:40;;;;;;;9.85;5.68;;;14.90;57.80;;;;;;5027038;28;20052;-66
2022/02/07 14:18:46;;;;;;;11.18;5.28;;;16.20;58.50;;;;;;5028396;28;20036;-67
2022/02/07 14:21:50;;;;;;;9.05;5.13;;;17.80;56.60;;;;;;5030361;28;20052;-66
2022/02/07 14:24:54;;;;;;;6.65;4.72;;;18.70;53.70;;;;;;5026851;28;20044;-67
2022/02/07 14:28:01;;;;;;;11.30;4.90;;;20.40;54.50;;;;;;5023901;28;20040;-67
2022/02/07 14:31:08;;;;;;;9.50;5.97;;;21.30;51.80;;;;;;5029501;28;20064;-66
2022/02/07 14:34:12;;;;;;;9.98;5.65;;;21.60;52.10;;;;;;5023783;28;20507;-66
2022/02/07 14:37:18;;;;;;;8.90;5.63;;;21.40;51.80;;;;;;5028689;28;20036;-67
2022/02/07 14:40:22;;;;;;;9.00;6.10;;;21.70;51.50;;;;;;5026864;28;20044;-66
2022/02/07 14:43:30;;;;;;;10.65;6.13;;;21.00;51.90;;;;;;5031383;28;20057;-67
2022/02/07 14:46:37;;;;;;;11.18;6.15;;;20.20;52.10;;;;;;5030961;28;20052;-66
2022/02/07 14:49:42;;;;;;;13.38;8.95;;;19.80;51.90;;;;;;5022601;28;20048;-66
2022/02/07 14:52:47;;;;;;;12.90;7.40;;;20.20;53.00;;;;;;5024195;28;20381;-66
2022/02/07 14:55:52;;;;;;;8.23;5.63;;;20.50;52.80;;;;;;5030722;28;20049;-66
2022/02/07 14:58:57;;;;;;;9.00;5.78;;;20.10;52.00;;;;;;5033440;28;20048;-67
2022/02/07 15:02:03;;;;;;;8.93;5.57;;;20.80;52.10;;;;;;5028841;28;20070;-66
2022/02/07 15:05:08;;;;;;;8.27;5.70;;;20.80;52.60;;;;;;5029284;28;20412;-66
2022/02/07 15:08:12;;;;;;;10.60;6.10;;;21.20;52.40;;;;;;5030536;28;20045;-66
2022/02/07 15:11:17;;;;;;;10.65;6.05;;;19.70;50.20;;;;;;5030290;28;20045;-66
2022/02/07 15:14:21;;;;;;;8.73;5.22;;;19.00;50.40;;;;;;5024718;28;20045;-65
2022/02/07 15:17:28;;;;;;;9.73;5.68;;;17.90;49.80;;;;;;5026391;28;20052;-66
2022/02/07 15:20:33;;;;;;;18.15;11.20;;;16.90;49.80;;;;;;5022598;28;20896;-67
2022/02/07 15:23:38;;;;;;;14.80;8.13;;;16.80;51.00;;;;;;5029710;28;20048;-66
2022/02/07 15:26:43;;;;;;;15.40;9.82;;;16.40;50.30;;;;;;5029979;28;20032;-65
2022/02/07 15:29:50;;;;;;;15.93;9.57;;;16.50;51.40;;;;;;5023086;28;20507;-66
2022/02/07 15:32:56;;;;;;;9.40;6.00;;;16.60;52.40;;;;;;5022570;28;20059;-66
2022/02/07 15:36:02;;;;;;;8.88;5.85;;;16.20;51.80;;;;;;5032835;28;20044;-65
2022/02/07 15:39:08;;;;;;;9.32;5.10;;;15.80;52.70;;;;;;5027409;28;20036;-67
2022/02/07 15:42:13;;;;;;;10.50;6.10;;;15.50;52.30;;;;;;5023106;28;20093;-66
2022/02/07 15:45:18;;;;;;;11.75;6.03;;;15.30;52.00;;;;;;5019220;28;20045;-66
2022/02/07 15:48:24;;;;;;;52.58;30.48;;;15.20;52.70;;;;;;5021158;28;20036;-66
2022/02/07 15:51:28;;;;;;;30.48;19.30;;;15.30;53.00;;;;;;5033192;28;20063;-66
2022/02/07 15:54:38;;;;;;;38.42;20.25;;;15.00;54.50;;;;;;5030637;28;20432;-66
2022/02/07 15:57:46;;;;;;;17.52;12.07;;;14.80;54.60;;;;;;5030840;28;20060;-66
2022/02/07 16:00:50;;;;;;;22.13;13.90;;;14.70;55.60;;;;;;5030908;28;20040;-66
2022/02/07 16:03:54;;;;;;;25.48;16.02;;;14.70;55.60;;;;;;5029878;28;20041;-66
2022/02/07 16:06:59;;;;;;;13.45;7.57;;;14.70;55.20;;;;;;5029307;28;20064;-66
2022/02/07 16:10:04;;;;;;;9.82;6.00;;;14.40;55.50;;;;;;5031148;28;20044;-65
2022/02/07 16:13:18;;;;;;;9.45;5.18;;;13.90;55.10;;;;;;5033374;28;20109;-66
2022/02/07 16:16:28;;;;;;;10.90;5.63;;;13.00;54.40;;;;;;5032482;28;20083;-66
2022/02/07 16:19:32;;;;;;;12.32;6.88;;;12.40;54.90;;;;;;5030521;28;20494;-66
2022/02/07 16:22:36;;;;;;;10.95;6.05;;;11.80;55.00;;;;;;5030846;28;20357;-66
2022/02/07 16:25:42;;;;;;;12.05;5.47;;;11.50;56.20;;;;;;5033723;28;20503;-66
2022/02/07 16:28:46;;;;;;;8.88;4.82;;;11.10;56.10;;;;;;5033027;28;20056;-67
2022/02/07 16:31:51;;;;;;;18.98;12.23;;;10.80;56.30;;;;;;5032764;28;20044;-65
2022/02/07 16:34:55;;;;;;;17.58;11.50;;;10.60;56.40;;;;;;5032573;28;20045;-67
2022/02/07 16:37:59;;;;;;;13.15;8.10;;;10.40;56.90;;;;;;5032035;28;20393;-66
2022/02/07 16:41:04;;;;;;;27.27;16.23;;;10.30;55.80;;;;;;5032175;28;20116;-66
2022/02/07 16:44:11;;;;;;;16.65;10.57;;;10.10;55.70;;;;;;5032268;28;20048;-66
2022/02/07 16:47:15;;;;;;;11.43;7.20;;;10.00;54.80;;;;;;5031983;28;20598;-65
2022/02/07 16:50:21;;;;;;;7.05;3.70;;;10.00;54.00;;;;;;5031902;28;20044;-66
2022/02/07 16:53:25;;;;;;;26.35;19.40;;;9.90;53.90;;;;;;5031998;28;20518;-66
2022/02/07 16:56:29;;;;;;;26.13;16.52;;;9.80;54.90;;;;;;5031706;28;20037;-65
2022/02/07 16:59:32;;;;;;;21.10;13.50;;;9.70;54.20;;;;;;5031440;28;20045;-66
2022/02/07 17:02:39;;;;;;;24.75;11.77;;;9.60;54.30;;;;;;5031976;28;20566;-66
2022/02/07 17:05:42;;;;;;;15.55;7.40;;;9.50;54.10;;;;;;5032217;28;20044;-66
2022/02/07 17:08:47;;;;;;;12.27;7.00;;;9.40;53.60;;;;;;5031660;28;20384;-66
2022/02/07 17:11:52;;;;;;;12.10;7.32;;;9.30;53.10;;;;;;5032112;28;20499;-66
2022/02/07 17:14:57;;;;;;;13.50;6.63;;;9.20;53.20;;;;;;5031601;28;20048;-66
2022/02/07 17:18:01;;;;;;;7.78;5.10;;;9.10;52.70;;;;;;5032167;28;20037;-66
2022/02/07 17:21:05;;;;;;;10.02;5.50;;;9.10;53.50;;;;;;5031638;28;20499;-66
2022/02/07 17:24:10;;;;;;;9.57;5.63;;;9.10;52.40;;;;;;5031520;28;20044;-66
2022/02/07 17:27:14;;;;;;;9.27;5.95;;;9.00;51.40;;;;;;5031894;28;20047;-65
2022/02/07 17:30:19;;;;;;;12.13;7.00;;;8.90;52.30;;;;;;5031349;28;20033;-66
2022/02/07 17:33:25;;;;;;;24.25;16.08;;;8.80;51.20;;;;;;5031787;28;20048;-66
2022/02/07 17:36:30;;;;;;;17.20;10.27;;;8.70;52.30;;;;;;5031949;28;20052;-66
2022/02/07 17:39:35;;;;;;;64.40;33.38;;;8.60;51.70;;;;;;5031527;28;20048;-65
2022/02/07 17:42:41;;;;;;;54.45;28.63;;;8.70;51.10;;;;;;5031649;28;20056;-66
2022/02/07 17:45:45;;;;;;;25.30;12.52;;;8.60;51.10;;;;;;5031488;28;20060;-66
2022/02/07 17:48:50;;;;;;;12.88;6.88;;;8.50;50.90;;;;;;5030668;28;20383;-65
2022/02/07 17:51:54;;;;;;;6.68;4.35;;;8.40;51.80;;;;;;5031260;28;20404;-66
2022/02/07 17:54:58;;;;;;;16.73;10.60;;;8.30;52.40;;;;;;5031274;28;20379;-66
2022/02/07 17:58:04;;;;;;;9.90;7.15;;;8.20;51.50;;;;;;5030821;28;20048;-66
2022/02/07 18:01:08;;;;;;;11.77;8.30;;;8.10;52.40;;;;;;5030984;28;20044;-66
2022/02/07 18:04:12;;;;;;;7.68;5.25;;;8.00;52.80;;;;;;5030811;28;20032;-65
2022/02/07 18:07:16;;;;;;;13.23;8.70;;;7.90;51.40;;;;;;5030960;28;20104;-66
2022/02/07 18:10:20;;;;;;;7.55;3.80;;;7.90;51.30;;;;;;5030491;28;20044;-66
2022/02/07 18:13:24;;;;;;;14.48;9.18;;;7.80;52.50;;;;;;5030715;28;20053;-66
2022/02/07 18:16:28;;;;;;;9.45;3.90;;;7.70;53.10;;;;;;5030698;28;20045;-66
2022/02/07 18:19:37;;;;;;;24.15;12.85;;;7.60;52.60;;;;;;5030080;28;20045;-66